sensor_id;sensor_type;location;lat;lon;timestamp;P1;durP1;ratioP1;P2;durP2;ratioP2
2724;SDS011;1370;52.596;13.112;2024-01-15T00:00:38;20.00;;;12.63;;
2724;SDS011;1370;52.596;13.112;2024-01-15T00:03:04;23.67;;;13.83;;
2724;SDS011;1370;52.596;13.112;2024-01-15T00:05:29;23.20;;;12.10;;
2724;SDS011;1370;52.596;13.112;2024-01-15T00:07:54;17.10;;;11.23;;
2724;SDS011;1370;52.596;13.112;2024-01-15T00:10:20;17.30;;;12.97;;
2724;SDS011;1370;52.596;13.112;2024-01-15T00:12:45;15.03;;;11.50;;
2724;SDS011;1370;52.596;13.112;2024-01-15T00:15:10;25.43;;;11.50;;
2724;SDS011;1370;52.596;13.112;2024-01-15T00:17:35;13.80;;;10.67;;
2724;SDS011;1370;52.596;13.112;2024-01-15T00:20:01;13.40;;;10.90;;
2724;SDS011;1370;52.596;13.112;2024-01-15T00:22:26;15.80;;;10.50;;
2724;SDS011;1370;52.596;13.112;2024-01-15T00:24:55;16.57;;;10.30;;
2724;SDS011;1370;52.596;13.112;2024-01-15T00:27:21;15.30;;;10.20;;
2724;SDS011;1370;52.596;13.112;2024-01-15T00:29:46;12.47;;;10.40;;
2724;SDS011;1370;52.596;13.112;2024-01-15T00:32:11;18.53;;;11.10;;
2724;SDS011;1370;52.596;13.112;2024-01-15T00:34:37;20.53;;;13.43;;
2724;SDS011;1370;52.596;13.112;2024-01-15T00:37:02;10.70;;;7.90;;
2724;SDS011;1370;52.596;13.112;2024-01-15T00:39:27;21.30;;;11.40;;
2724;SDS011;1370;52.596;13.112;2024-01-15T00:41:53;15.30;;;10.00;;
2724;SDS011;1370;52.596;13.112;2024-01-15T00:44:18;15.33;;;10.73;;
2724;SDS011;1370;52.596;13.112;2024-01-15T00:46:44;17.63;;;10.10;;
2724;SDS011;1370;52.596;13.112;2024-01-15T00:49:13;13.30;;;9.33;;
2724;SDS011;1370;52.596;13.112;2024-01-15T00:51:38;19.50;;;10.73;;
2724;SDS011;1370;52.596;13.112;2024-01-15T00:54:04;15.10;;;9.67;;
2724;SDS011;1370;52.596;13.112;2024-01-15T00:56:29;14.10;;;9.40;;
2724;SDS011;1370;52.596;13.112;2024-01-15T00:58:55;11.03;;;9.23;;
2724;SDS011;1370;52.596;13.112;2024-01-15T01:01:20;13.73;;;9.63;;
2724;SDS011;1370;52.596;13.112;2024-01-15T01:03:45;13.63;;;9.57;;
2724;SDS011;1370;52.596;13.112;2024-01-15T01:06:10;11.83;;;9.20;;
2724;SDS011;1370;52.596;13.112;2024-01-15T01:08:36;15.13;;;11.10;;
2724;SDS011;1370;52.596;13.112;2024-01-15T01:11:01;13.77;;;9.10;;
2724;SDS011;1370;52.596;13.112;2024-01-15T01:13:26;13.00;;;9.93;;
2724;SDS011;1370;52.596;13.112;2024-01-15T01:15:52;14.33;;;9.17;;
2724;SDS011;1370;52.596;13.112;2024-01-15T01:18:17;12.07;;;9.20;;
2724;SDS011;1370;52.596;13.112;2024-01-15T01:20:42;13.17;;;8.67;;
2724;SDS011;1370;52.596;13.112;2024-01-15T01:23:07;13.70;;;10.30;;
2724;SDS011;1370;52.596;13.112;2024-01-15T01:25:33;20.83;;;10.17;;
2724;SDS011;1370;52.596;13.112;2024-01-15T01:27:58;16.70;;;9.10;;
2724;SDS011;1370;52.596;13.112;2024-01-15T01:30:23;13.93;;;8.20;;
2724;SDS011;1370;52.596;13.112;2024-01-15T01:32:49;11.73;;;8.97;;
2724;SDS011;1370;52.596;13.112;2024-01-15T01:35:14;12.50;;;8.70;;
2724;SDS011;1370;52.596;13.112;2024-01-15T01:37:39;12.77;;;9.43;;
2724;SDS011;1370;52.596;13.112;2024-01-15T01:40:05;16.73;;;9.30;;
2724;SDS011;1370;52.596;13.112;2024-01-15T01:42:30;15.17;;;10.90;;
2724;SDS011;1370;52.596;13.112;2024-01-15T01:44:56;11.30;;;9.43;;
2724;SDS011;1370;52.596;13.112;2024-01-15T01:47:21;15.00;;;9.03;;
2724;SDS011;1370;52.596;13.112;2024-01-15T01:49:46;9.73;;;8.00;;
2724;SDS011;1370;52.596;13.112;2024-01-15T01:52:12;9.27;;;7.87;;
2724;SDS011;1370;52.596;13.112;2024-01-15T01:54:37;12.63;;;8.90;;
2724;SDS011;1370;52.596;13.112;2024-01-15T01:57:05;11.90;;;8.57;;
2724;SDS011;1370;52.596;13.112;2024-01-15T01:59:30;27.13;;;10.20;;
2724;SDS011;1370;52.596;13.112;2024-01-15T02:01:57;13.73;;;8.87;;
2724;SDS011;1370;52.596;13.112;2024-01-15T02:04:23;18.70;;;9.73;;
2724;SDS011;1370;52.596;13.112;2024-01-15T02:10:11;12.70;;;8.27;;
2724;SDS011;1370;52.596;13.112;2024-01-15T02:12:36;11.47;;;8.43;;
2724;SDS011;1370;52.596;13.112;2024-01-15T02:15:01;10.80;;;8.90;;
2724;SDS011;1370;52.596;13.112;2024-01-15T02:17:27;14.50;;;8.53;;
2724;SDS011;1370;52.596;13.112;2024-01-15T02:19:52;13.03;;;7.60;;
2724;SDS011;1370;52.596;13.112;2024-01-15T02:22:17;10.67;;;7.07;;
2724;SDS011;1370;52.596;13.112;2024-01-15T02:24:42;11.43;;;8.20;;
2724;SDS011;1370;52.596;13.112;2024-01-15T02:27:08;12.00;;;7.83;;
2724;SDS011;1370;52.596;13.112;2024-01-15T02:29:33;11.60;;;8.40;;
2724;SDS011;1370;52.596;13.112;2024-01-15T02:31:59;12.37;;;6.83;;
2724;SDS011;1370;52.596;13.112;2024-01-15T02:34:24;10.37;;;7.60;;
2724;SDS011;1370;52.596;13.112;2024-01-15T02:36:49;7.73;;;5.90;;
2724;SDS011;1370;52.596;13.112;2024-01-15T02:39:14;6.53;;;5.90;;
2724;SDS011;1370;52.596;13.112;2024-01-15T02:41:40;6.87;;;6.23;;
2724;SDS011;1370;52.596;13.112;2024-01-15T02:44:05;10.93;;;6.93;;
2724;SDS011;1370;52.596;13.112;2024-01-15T02:46:30;6.70;;;6.10;;
2724;SDS011;1370;52.596;13.112;2024-01-15T02:48:56;10.17;;;6.50;;
2724;SDS011;1370;52.596;13.112;2024-01-15T02:51:21;8.27;;;6.60;;
2724;SDS011;1370;52.596;13.112;2024-01-15T02:53:46;9.40;;;6.03;;
2724;SDS011;1370;52.596;13.112;2024-01-15T02:56:11;12.83;;;5.80;;
2724;SDS011;1370;52.596;13.112;2024-01-15T02:58:37;10.70;;;6.20;;
2724;SDS011;1370;52.596;13.112;2024-01-15T03:01:02;9.47;;;6.67;;
2724;SDS011;1370;52.596;13.112;2024-01-15T03:03:27;6.70;;;6.00;;
2724;SDS011;1370;52.596;13.112;2024-01-15T03:05:53;8.37;;;6.20;;
2724;SDS011;1370;52.596;13.112;2024-01-15T03:08:18;10.83;;;6.10;;
2724;SDS011;1370;52.596;13.112;2024-01-15T03:10:43;7.37;;;5.43;;
2724;SDS011;1370;52.596;13.112;2024-01-15T03:13:09;6.60;;;6.00;;
2724;SDS011;1370;52.596;13.112;2024-01-15T03:15:34;9.20;;;7.00;;
2724;SDS011;1370;52.596;13.112;2024-01-15T03:17:59;11.27;;;7.60;;
2724;SDS011;1370;52.596;13.112;2024-01-15T03:20:24;6.47;;;5.93;;
2724;SDS011;1370;52.596;13.112;2024-01-15T03:22:50;11.73;;;7.00;;
2724;SDS011;1370;52.596;13.112;2024-01-15T03:25:15;7.00;;;5.60;;
2724;SDS011;1370;52.596;13.112;2024-01-15T03:27:40;7.77;;;6.57;;
2724;SDS011;1370;52.596;13.112;2024-01-15T03:30:06;9.07;;;6.70;;
2724;SDS011;1370;52.596;13.112;2024-01-15T03:32:32;9.80;;;6.00;;
2724;SDS011;1370;52.596;13.112;2024-01-15T03:34:57;7.60;;;5.90;;
2724;SDS011;1370;52.596;13.112;2024-01-15T03:37:22;7.37;;;6.17;;
2724;SDS011;1370;52.596;13.112;2024-01-15T03:39:48;7.00;;;5.77;;
2724;SDS011;1370;52.596;13.112;2024-01-15T03:42:13;12.33;;;5.83;;
2724;SDS011;1370;52.596;13.112;2024-01-15T03:44:39;7.97;;;5.90;;
2724;SDS011;1370;52.596;13.112;2024-01-15T03:47:04;12.83;;;6.17;;
2724;SDS011;1370;52.596;13.112;2024-01-15T03:49:30;10.73;;;5.43;;
2724;SDS011;1370;52.596;13.112;2024-01-15T03:51:55;10.73;;;6.50;;
2724;SDS011;1370;52.596;13.112;2024-01-15T03:54:20;7.20;;;5.83;;
2724;SDS011;1370;52.596;13.112;2024-01-15T03:56:46;9.73;;;5.23;;
2724;SDS011;1370;52.596;13.112;2024-01-15T03:59:11;8.90;;;4.80;;
2724;SDS011;1370;52.596;13.112;2024-01-15T04:01:36;10.40;;;6.90;;
2724;SDS011;1370;52.596;13.112;2024-01-15T04:04:01;8.13;;;5.67;;
2724;SDS011;1370;52.596;13.112;2024-01-15T04:06:27;5.60;;;4.13;;
2724;SDS011;1370;52.596;13.112;2024-01-15T04:08:52;11.60;;;5.70;;
2724;SDS011;1370;52.596;13.112;2024-01-15T04:11:17;7.80;;;5.00;;
2724;SDS011;1370;52.596;13.112;2024-01-15T04:13:43;5.90;;;5.30;;
2724;SDS011;1370;52.596;13.112;2024-01-15T04:16:08;7.57;;;5.60;;
2724;SDS011;1370;52.596;13.112;2024-01-15T04:18:33;9.93;;;5.87;;
2724;SDS011;1370;52.596;13.112;2024-01-15T04:20:58;5.57;;;4.97;;
2724;SDS011;1370;52.596;13.112;2024-01-15T04:23:24;5.23;;;4.73;;
2724;SDS011;1370;52.596;13.112;2024-01-15T04:25:49;6.10;;;4.00;;
2724;SDS011;1370;52.596;13.112;2024-01-15T04:28:14;6.23;;;4.40;;
2724;SDS011;1370;52.596;13.112;2024-01-15T04:30:40;5.03;;;4.57;;
2724;SDS011;1370;52.596;13.112;2024-01-15T04:33:05;6.90;;;4.13;;
2724;SDS011;1370;52.596;13.112;2024-01-15T04:35:30;5.80;;;4.20;;
2724;SDS011;1370;52.596;13.112;2024-01-15T04:37:56;8.20;;;5.17;;
2724;SDS011;1370;52.596;13.112;2024-01-15T04:40:21;6.57;;;4.40;;
2724;SDS011;1370;52.596;13.112;2024-01-15T04:42:47;11.90;;;4.23;;
2724;SDS011;1370;52.596;13.112;2024-01-15T04:45:13;5.70;;;3.63;;
2724;SDS011;1370;52.596;13.112;2024-01-15T04:47:38;13.07;;;4.67;;
2724;SDS011;1370;52.596;13.112;2024-01-15T04:50:04;4.17;;;3.73;;
2724;SDS011;1370;52.596;13.112;2024-01-15T04:52:29;15.10;;;4.20;;
2724;SDS011;1370;52.596;13.112;2024-01-15T04:54:55;6.73;;;3.93;;
2724;SDS011;1370;52.596;13.112;2024-01-15T04:57:20;5.97;;;3.33;;
2724;SDS011;1370;52.596;13.112;2024-01-15T04:59:45;9.33;;;4.10;;
2724;SDS011;1370;52.596;13.112;2024-01-15T05:02:11;8.50;;;4.20;;
2724;SDS011;1370;52.596;13.112;2024-01-15T05:04:36;3.63;;;2.80;;
2724;SDS011;1370;52.596;13.112;2024-01-15T05:07:01;9.73;;;2.87;;
2724;SDS011;1370;52.596;13.112;2024-01-15T05:09:26;6.70;;;3.47;;
2724;SDS011;1370;52.596;13.112;2024-01-15T05:11:52;8.47;;;3.93;;
2724;SDS011;1370;52.596;13.112;2024-01-15T05:14:17;5.40;;;3.90;;
2724;SDS011;1370;52.596;13.112;2024-01-15T05:16:48;4.70;;;3.07;;
2724;SDS011;1370;52.596;13.112;2024-01-15T05:19:14;4.07;;;3.77;;
2724;SDS011;1370;52.596;13.112;2024-01-15T05:21:39;6.80;;;2.70;;
2724;SDS011;1370;52.596;13.112;2024-01-15T05:24:05;3.40;;;2.77;;
2724;SDS011;1370;52.596;13.112;2024-01-15T05:26:30;3.20;;;3.00;;
2724;SDS011;1370;52.596;13.112;2024-01-15T05:28:55;6.60;;;2.77;;
2724;SDS011;1370;52.596;13.112;2024-01-15T05:31:21;5.93;;;3.00;;
2724;SDS011;1370;52.596;13.112;2024-01-15T05:33:46;4.00;;;2.80;;
2724;SDS011;1370;52.596;13.112;2024-01-15T05:36:11;6.90;;;2.20;;
2724;SDS011;1370;52.596;13.112;2024-01-15T05:38:36;3.67;;;3.30;;
2724;SDS011;1370;52.596;13.112;2024-01-15T05:41:02;3.90;;;3.57;;
2724;SDS011;1370;52.596;13.112;2024-01-15T05:43:27;9.57;;;2.53;;
2724;SDS011;1370;52.596;13.112;2024-01-15T05:45:52;2.77;;;2.57;;
2724;SDS011;1370;52.596;13.112;2024-01-15T05:48:17;3.03;;;1.87;;
2724;SDS011;1370;52.596;13.112;2024-01-15T05:50:43;5.57;;;2.57;;
2724;SDS011;1370;52.596;13.112;2024-01-15T05:53:08;7.70;;;2.50;;
2724;SDS011;1370;52.596;13.112;2024-01-15T05:55:35;3.07;;;2.87;;
2724;SDS011;1370;52.596;13.112;2024-01-15T05:58:00;5.43;;;2.50;;
2724;SDS011;1370;52.596;13.112;2024-01-15T06:00:26;5.33;;;2.67;;
2724;SDS011;1370;52.596;13.112;2024-01-15T06:02:51;3.93;;;2.77;;
2724;SDS011;1370;52.596;13.112;2024-01-15T06:05:16;5.90;;;2.70;;
2724;SDS011;1370;52.596;13.112;2024-01-15T06:07:42;4.70;;;3.17;;
2724;SDS011;1370;52.596;13.112;2024-01-15T06:10:07;3.30;;;2.97;;
2724;SDS011;1370;52.596;13.112;2024-01-15T06:12:33;9.20;;;2.53;;
2724;SDS011;1370;52.596;13.112;2024-01-15T06:14:58;3.97;;;2.57;;
2724;SDS011;1370;52.596;13.112;2024-01-15T06:17:24;5.70;;;2.50;;
2724;SDS011;1370;52.596;13.112;2024-01-15T06:19:49;11.90;;;2.73;;
2724;SDS011;1370;52.596;13.112;2024-01-15T06:22:14;4.83;;;2.57;;
2724;SDS011;1370;52.596;13.112;2024-01-15T06:24:39;6.73;;;3.50;;
2724;SDS011;1370;52.596;13.112;2024-01-15T06:27:05;2.20;;;2.00;;
2724;SDS011;1370;52.596;13.112;2024-01-15T06:29:31;8.27;;;2.47;;
2724;SDS011;1370;52.596;13.112;2024-01-15T06:31:57;8.50;;;2.60;;
2724;SDS011;1370;52.596;13.112;2024-01-15T06:34:22;2.80;;;2.27;;
2724;SDS011;1370;52.596;13.112;2024-01-15T06:36:47;6.83;;;4.23;;
2724;SDS011;1370;52.596;13.112;2024-01-15T06:39:13;5.67;;;2.60;;
2724;SDS011;1370;52.596;13.112;2024-01-15T06:41:38;6.30;;;2.30;;
2724;SDS011;1370;52.596;13.112;2024-01-15T06:44:08;5.47;;;2.83;;
2724;SDS011;1370;52.596;13.112;2024-01-15T06:46:34;10.13;;;2.77;;
2724;SDS011;1370;52.596;13.112;2024-01-15T06:49:00;9.47;;;3.00;;
2724;SDS011;1370;52.596;13.112;2024-01-15T06:51:25;4.90;;;2.70;;
2724;SDS011;1370;52.596;13.112;2024-01-15T06:53:50;3.20;;;2.00;;
2724;SDS011;1370;52.596;13.112;2024-01-15T06:56:16;10.03;;;2.30;;
2724;SDS011;1370;52.596;13.112;2024-01-15T06:58:41;2.37;;;2.10;;
2724;SDS011;1370;52.596;13.112;2024-01-15T07:01:06;5.40;;;2.70;;
2724;SDS011;1370;52.596;13.112;2024-01-15T07:03:35;13.30;;;2.67;;
2724;SDS011;1370;52.596;13.112;2024-01-15T07:06:00;2.00;;;1.80;;
2724;SDS011;1370;52.596;13.112;2024-01-15T07:08:25;9.17;;;2.70;;
2724;SDS011;1370;52.596;13.112;2024-01-15T07:10:51;7.70;;;2.10;;
2724;SDS011;1370;52.596;13.112;2024-01-15T07:13:16;4.10;;;3.03;;
2724;SDS011;1370;52.596;13.112;2024-01-15T07:15:42;11.40;;;2.20;;
2724;SDS011;1370;52.596;13.112;2024-01-15T07:18:07;8.97;;;2.73;;
2724;SDS011;1370;52.596;13.112;2024-01-15T07:20:33;8.33;;;2.83;;
2724;SDS011;1370;52.596;13.112;2024-01-15T07:22:58;11.83;;;3.53;;
2724;SDS011;1370;52.596;13.112;2024-01-15T07:25:24;13.03;;;2.57;;
2724;SDS011;1370;52.596;13.112;2024-01-15T07:27:51;11.30;;;2.67;;
2724;SDS011;1370;52.596;13.112;2024-01-15T07:30:16;14.33;;;4.10;;
2724;SDS011;1370;52.596;13.112;2024-01-15T07:32:41;6.90;;;2.10;;
2724;SDS011;1370;52.596;13.112;2024-01-15T07:35:07;5.87;;;2.57;;
2724;SDS011;1370;52.596;13.112;2024-01-15T07:37:32;5.30;;;2.13;;
2724;SDS011;1370;52.596;13.112;2024-01-15T07:39:58;8.10;;;3.50;;
2724;SDS011;1370;52.596;13.112;2024-01-15T07:42:23;11.23;;;3.60;;
2724;SDS011;1370;52.596;13.112;2024-01-15T07:44:48;5.63;;;1.80;;
2724;SDS011;1370;52.596;13.112;2024-01-15T07:47:15;2.90;;;1.90;;
2724;SDS011;1370;52.596;13.112;2024-01-15T07:49:41;15.10;;;7.27;;
2724;SDS011;1370;52.596;13.112;2024-01-15T07:52:07;12.93;;;8.27;;
2724;SDS011;1370;52.596;13.112;2024-01-15T07:54:32;7.53;;;3.80;;
2724;SDS011;1370;52.596;13.112;2024-01-15T07:56:58;5.67;;;2.97;;
2724;SDS011;1370;52.596;13.112;2024-01-15T07:59:30;12.03;;;2.70;;
2724;SDS011;1370;52.596;13.112;2024-01-15T08:01:55;7.63;;;2.73;;
2724;SDS011;1370;52.596;13.112;2024-01-15T08:04:20;5.53;;;2.43;;
2724;SDS011;1370;52.596;13.112;2024-01-15T08:06:47;7.90;;;2.57;;
2724;SDS011;1370;52.596;13.112;2024-01-15T08:09:12;2.77;;;1.87;;
2724;SDS011;1370;52.596;13.112;2024-01-15T08:11:41;11.53;;;2.90;;
2724;SDS011;1370;52.596;13.112;2024-01-15T08:14:07;8.13;;;3.27;;
2724;SDS011;1370;52.596;13.112;2024-01-15T08:16:32;4.17;;;2.50;;
2724;SDS011;1370;52.596;13.112;2024-01-15T08:18:57;8.63;;;2.37;;
2724;SDS011;1370;52.596;13.112;2024-01-15T08:21:23;7.63;;;2.10;;
2724;SDS011;1370;52.596;13.112;2024-01-15T08:23:48;6.03;;;2.80;;
2724;SDS011;1370;52.596;13.112;2024-01-15T08:26:13;6.93;;;2.73;;
2724;SDS011;1370;52.596;13.112;2024-01-15T08:28:39;5.83;;;2.23;;
2724;SDS011;1370;52.596;13.112;2024-01-15T08:31:04;4.97;;;2.43;;
2724;SDS011;1370;52.596;13.112;2024-01-15T08:33:29;4.80;;;2.30;;
2724;SDS011;1370;52.596;13.112;2024-01-15T08:35:55;8.00;;;1.80;;
2724;SDS011;1370;52.596;13.112;2024-01-15T08:38:20;4.20;;;2.60;;
2724;SDS011;1370;52.596;13.112;2024-01-15T08:40:45;4.27;;;2.17;;
2724;SDS011;1370;52.596;13.112;2024-01-15T08:43:11;4.60;;;3.20;;
2724;SDS011;1370;52.596;13.112;2024-01-15T08:45:36;9.93;;;2.97;;
2724;SDS011;1370;52.596;13.112;2024-01-15T08:48:02;8.60;;;3.23;;
2724;SDS011;1370;52.596;13.112;2024-01-15T08:50:27;13.53;;;2.67;;
2724;SDS011;1370;52.596;13.112;2024-01-15T08:52:54;3.60;;;2.20;;
2724;SDS011;1370;52.596;13.112;2024-01-15T08:55:20;1.77;;;1.67;;
2724;SDS011;1370;52.596;13.112;2024-01-15T08:57:48;6.80;;;2.57;;
2724;SDS011;1370;52.596;13.112;2024-01-15T09:00:14;4.40;;;2.03;;
2724;SDS011;1370;52.596;13.112;2024-01-15T09:02:44;7.37;;;3.03;;
2724;SDS011;1370;52.596;13.112;2024-01-15T09:05:09;12.17;;;3.27;;
2724;SDS011;1370;52.596;13.112;2024-01-15T09:07:35;6.17;;;2.10;;
2724;SDS011;1370;52.596;13.112;2024-01-15T09:10:00;4.43;;;2.60;;
2724;SDS011;1370;52.596;13.112;2024-01-15T09:12:29;7.07;;;2.07;;
2724;SDS011;1370;52.596;13.112;2024-01-15T09:14:54;3.63;;;2.70;;
2724;SDS011;1370;52.596;13.112;2024-01-15T09:17:20;2.20;;;2.00;;
2724;SDS011;1370;52.596;13.112;2024-01-15T09:19:46;6.90;;;2.90;;
2724;SDS011;1370;52.596;13.112;2024-01-15T09:22:12;3.80;;;2.77;;
2724;SDS011;1370;52.596;13.112;2024-01-15T09:24:40;5.47;;;2.47;;
2724;SDS011;1370;52.596;13.112;2024-01-15T09:27:05;5.27;;;2.60;;
2724;SDS011;1370;52.596;13.112;2024-01-15T09:29:31;7.43;;;2.10;;
2724;SDS011;1370;52.596;13.112;2024-01-15T09:31:56;4.80;;;2.40;;
2724;SDS011;1370;52.596;13.112;2024-01-15T09:34:22;8.90;;;2.60;;
2724;SDS011;1370;52.596;13.112;2024-01-15T09:36:47;8.60;;;2.97;;
2724;SDS011;1370;52.596;13.112;2024-01-15T09:39:13;6.30;;;2.97;;
2724;SDS011;1370;52.596;13.112;2024-01-15T09:41:40;4.97;;;1.93;;
2724;SDS011;1370;52.596;13.112;2024-01-15T09:44:06;5.83;;;2.40;;
2724;SDS011;1370;52.596;13.112;2024-01-15T09:46:33;11.00;;;4.10;;
2724;SDS011;1370;52.596;13.112;2024-01-15T09:48:58;6.27;;;2.73;;
2724;SDS011;1370;52.596;13.112;2024-01-15T09:51:24;9.70;;;3.20;;
2724;SDS011;1370;52.596;13.112;2024-01-15T09:53:50;2.67;;;2.17;;
2724;SDS011;1370;52.596;13.112;2024-01-15T09:56:15;6.77;;;2.60;;
2724;SDS011;1370;52.596;13.112;2024-01-15T09:58:41;5.07;;;1.67;;
2724;SDS011;1370;52.596;13.112;2024-01-15T10:01:07;5.60;;;2.33;;
2724;SDS011;1370;52.596;13.112;2024-01-15T10:03:33;2.43;;;1.80;;
2724;SDS011;1370;52.596;13.112;2024-01-15T10:05:59;2.40;;;1.20;;
2724;SDS011;1370;52.596;13.112;2024-01-15T10:08:24;2.30;;;1.87;;
2724;SDS011;1370;52.596;13.112;2024-01-15T10:10:50;3.30;;;2.23;;
2724;SDS011;1370;52.596;13.112;2024-01-15T10:13:15;7.50;;;2.37;;
2724;SDS011;1370;52.596;13.112;2024-01-15T10:15:41;6.63;;;2.10;;
2724;SDS011;1370;52.596;13.112;2024-01-15T10:18:07;2.77;;;1.90;;
2724;SDS011;1370;52.596;13.112;2024-01-15T10:20:33;3.87;;;3.17;;
2724;SDS011;1370;52.596;13.112;2024-01-15T10:22:58;4.40;;;2.13;;
2724;SDS011;1370;52.596;13.112;2024-01-15T10:25:24;1.70;;;1.40;;
2724;SDS011;1370;52.596;13.112;2024-01-15T10:28:03;3.50;;;1.60;;
2724;SDS011;1370;52.596;13.112;2024-01-15T10:30:29;3.20;;;1.90;;
2724;SDS011;1370;52.596;13.112;2024-01-15T10:32:58;3.60;;;2.13;;
2724;SDS011;1370;52.596;13.112;2024-01-15T10:35:31;5.97;;;2.20;;
2724;SDS011;1370;52.596;13.112;2024-01-15T10:38:01;6.90;;;2.00;;
2724;SDS011;1370;52.596;13.112;2024-01-15T10:40:28;2.07;;;1.97;;
2724;SDS011;1370;52.596;13.112;2024-01-15T10:42:53;4.83;;;2.50;;
2724;SDS011;1370;52.596;13.112;2024-01-15T10:45:18;3.53;;;2.20;;
2724;SDS011;1370;52.596;13.112;2024-01-15T10:47:44;2.10;;;1.63;;
2724;SDS011;1370;52.596;13.112;2024-01-15T10:50:10;3.70;;;1.70;;
2724;SDS011;1370;52.596;13.112;2024-01-15T10:52:39;3.73;;;1.53;;
2724;SDS011;1370;52.596;13.112;2024-01-15T10:55:06;2.33;;;1.70;;
2724;SDS011;1370;52.596;13.112;2024-01-15T10:57:33;4.13;;;1.83;;
2724;SDS011;1370;52.596;13.112;2024-01-15T10:59:59;9.47;;;1.80;;
2724;SDS011;1370;52.596;13.112;2024-01-15T11:02:24;4.93;;;1.73;;
2724;SDS011;1370;52.596;13.112;2024-01-15T11:04:50;4.00;;;2.93;;
2724;SDS011;1370;52.596;13.112;2024-01-15T11:07:16;1.97;;;1.57;;
2724;SDS011;1370;52.596;13.112;2024-01-15T11:09:41;1.97;;;1.40;;
2724;SDS011;1370;52.596;13.112;2024-01-15T11:12:11;1.70;;;1.30;;
2724;SDS011;1370;52.596;13.112;2024-01-15T11:14:41;1.40;;;1.30;;
2724;SDS011;1370;52.596;13.112;2024-01-15T11:17:08;1.73;;;1.33;;
2724;SDS011;1370;52.596;13.112;2024-01-15T11:19:38;3.40;;;1.60;;
2724;SDS011;1370;52.596;13.112;2024-01-15T11:22:08;1.43;;;1.30;;
2724;SDS011;1370;52.596;13.112;2024-01-15T11:24:34;2.37;;;1.33;;
2724;SDS011;1370;52.596;13.112;2024-01-15T11:27:03;1.60;;;1.30;;
2724;SDS011;1370;52.596;13.112;2024-01-15T11:29:30;4.43;;;1.67;;
2724;SDS011;1370;52.596;13.112;2024-01-15T11:31:58;2.97;;;2.17;;
2724;SDS011;1370;52.596;13.112;2024-01-15T11:35:11;3.50;;;1.70;;
2724;SDS011;1370;52.596;13.112;2024-01-15T11:37:26;2.63;;;1.60;;
2724;SDS011;1370;52.596;13.112;2024-01-15T11:39:56;8.73;;;2.30;;
2724;SDS011;1370;52.596;13.112;2024-01-15T11:42:27;1.83;;;1.73;;
2724;SDS011;1370;52.596;13.112;2024-01-15T11:44:52;5.57;;;1.90;;
2724;SDS011;1370;52.596;13.112;2024-01-15T11:47:23;5.37;;;1.97;;
2724;SDS011;1370;52.596;13.112;2024-01-15T11:50:01;2.30;;;1.70;;
2724;SDS011;1370;52.596;13.112;2024-01-15T11:52:33;6.27;;;1.57;;
2724;SDS011;1370;52.596;13.112;2024-01-15T11:55:14;4.70;;;1.87;;
2724;SDS011;1370;52.596;13.112;2024-01-15T11:57:46;2.23;;;2.13;;
2724;SDS011;1370;52.596;13.112;2024-01-15T12:00:14;1.60;;;1.40;;
2724;SDS011;1370;52.596;13.112;2024-01-15T12:02:43;3.23;;;2.20;;
2724;SDS011;1370;52.596;13.112;2024-01-15T12:05:10;3.93;;;1.70;;
2724;SDS011;1370;52.596;13.112;2024-01-15T12:07:46;6.93;;;3.60;;
2724;SDS011;1370;52.596;13.112;2024-01-15T12:10:16;1.83;;;1.50;;
2724;SDS011;1370;52.596;13.112;2024-01-15T12:12:58;2.90;;;1.63;;
2724;SDS011;1370;52.596;13.112;2024-01-15T12:15:25;1.40;;;1.30;;
2724;SDS011;1370;52.596;13.112;2024-01-15T12:17:52;2.40;;;1.90;;
2724;SDS011;1370;52.596;13.112;2024-01-15T12:20:17;1.30;;;1.07;;
2724;SDS011;1370;52.596;13.112;2024-01-15T12:22:43;1.50;;;1.20;;
2724;SDS011;1370;52.596;13.112;2024-01-15T12:25:08;1.73;;;1.63;;
2724;SDS011;1370;52.596;13.112;2024-01-15T12:27:34;2.80;;;1.47;;
2724;SDS011;1370;52.596;13.112;2024-01-15T12:29:59;6.50;;;1.50;;
2724;SDS011;1370;52.596;13.112;2024-01-15T12:32:25;7.60;;;1.60;;
2724;SDS011;1370;52.596;13.112;2024-01-15T12:34:50;4.23;;;1.53;;
2724;SDS011;1370;52.596;13.112;2024-01-15T12:37:19;1.90;;;1.23;;
2724;SDS011;1370;52.596;13.112;2024-01-15T12:39:44;1.40;;;1.17;;
2724;SDS011;1370;52.596;13.112;2024-01-15T12:42:10;2.80;;;2.13;;
2724;SDS011;1370;52.596;13.112;2024-01-15T12:44:35;3.57;;;2.80;;
2724;SDS011;1370;52.596;13.112;2024-01-15T12:47:03;1.67;;;1.40;;
2724;SDS011;1370;52.596;13.112;2024-01-15T12:49:31;3.33;;;1.50;;
2724;SDS011;1370;52.596;13.112;2024-01-15T12:51:57;2.87;;;2.27;;
2724;SDS011;1370;52.596;13.112;2024-01-15T12:54:25;1.50;;;1.20;;
2724;SDS011;1370;52.596;13.112;2024-01-15T12:56:51;3.53;;;1.70;;
2724;SDS011;1370;52.596;13.112;2024-01-15T12:59:17;2.13;;;1.20;;
2724;SDS011;1370;52.596;13.112;2024-01-15T13:01:43;2.07;;;1.87;;
2724;SDS011;1370;52.596;13.112;2024-01-15T13:04:12;1.83;;;1.73;;
2724;SDS011;1370;52.596;13.112;2024-01-15T13:06:46;1.90;;;1.37;;
2724;SDS011;1370;52.596;13.112;2024-01-15T13:09:11;2.50;;;1.80;;
2724;SDS011;1370;52.596;13.112;2024-01-15T13:11:36;2.77;;;1.77;;
2724;SDS011;1370;52.596;13.112;2024-01-15T13:14:02;3.83;;;2.00;;
2724;SDS011;1370;52.596;13.112;2024-01-15T13:16:27;4.83;;;1.40;;
2724;SDS011;1370;52.596;13.112;2024-01-15T13:18:54;1.93;;;1.70;;
2724;SDS011;1370;52.596;13.112;2024-01-15T13:21:19;2.90;;;1.27;;
2724;SDS011;1370;52.596;13.112;2024-01-15T13:23:44;1.93;;;1.33;;
2724;SDS011;1370;52.596;13.112;2024-01-15T13:26:09;1.97;;;1.37;;
2724;SDS011;1370;52.596;13.112;2024-01-15T13:28:35;2.63;;;1.53;;
2724;SDS011;1370;52.596;13.112;2024-01-15T13:31:00;2.70;;;1.60;;
2724;SDS011;1370;52.596;13.112;2024-01-15T13:33:25;1.90;;;1.80;;
2724;SDS011;1370;52.596;13.112;2024-01-15T13:35:51;1.87;;;1.70;;
2724;SDS011;1370;52.596;13.112;2024-01-15T13:38:16;3.20;;;1.20;;
2724;SDS011;1370;52.596;13.112;2024-01-15T13:40:41;4.23;;;1.57;;
2724;SDS011;1370;52.596;13.112;2024-01-15T13:43:07;8.37;;;2.30;;
2724;SDS011;1370;52.596;13.112;2024-01-15T13:45:33;2.30;;;2.10;;
2724;SDS011;1370;52.596;13.112;2024-01-15T13:48:02;2.17;;;1.97;;
2724;SDS011;1370;52.596;13.112;2024-01-15T13:50:30;2.40;;;1.33;;
2724;SDS011;1370;52.596;13.112;2024-01-15T13:52:56;4.90;;;1.80;;
2724;SDS011;1370;52.596;13.112;2024-01-15T13:55:21;2.33;;;1.90;;
2724;SDS011;1370;52.596;13.112;2024-01-15T13:57:47;2.90;;;2.00;;
2724;SDS011;1370;52.596;13.112;2024-01-15T14:00:12;6.77;;;2.00;;
2724;SDS011;1370;52.596;13.112;2024-01-15T14:02:43;1.77;;;1.57;;
2724;SDS011;1370;52.596;13.112;2024-01-15T14:05:08;6.30;;;2.10;;
2724;SDS011;1370;52.596;13.112;2024-01-15T14:07:34;2.77;;;1.50;;
2724;SDS011;1370;52.596;13.112;2024-01-15T14:09:59;3.27;;;3.00;;
2724;SDS011;1370;52.596;13.112;2024-01-15T14:12:24;3.30;;;2.47;;
2724;SDS011;1370;52.596;13.112;2024-01-15T14:14:52;3.37;;;1.70;;
2724;SDS011;1370;52.596;13.112;2024-01-15T14:17:18;2.77;;;2.43;;
2724;SDS011;1370;52.596;13.112;2024-01-15T14:19:46;1.93;;;1.73;;
2724;SDS011;1370;52.596;13.112;2024-01-15T14:22:12;1.30;;;1.20;;
2724;SDS011;1370;52.596;13.112;2024-01-15T14:24:37;3.00;;;1.90;;
2724;SDS011;1370;52.596;13.112;2024-01-15T14:27:02;2.90;;;1.77;;
2724;SDS011;1370;52.596;13.112;2024-01-15T14:29:33;2.27;;;2.07;;
2724;SDS011;1370;52.596;13.112;2024-01-15T14:32:01;3.17;;;2.10;;
2724;SDS011;1370;52.596;13.112;2024-01-15T14:34:26;5.13;;;2.57;;
2724;SDS011;1370;52.596;13.112;2024-01-15T14:36:52;5.50;;;2.10;;
2724;SDS011;1370;52.596;13.112;2024-01-15T14:39:23;4.57;;;2.20;;
2724;SDS011;1370;52.596;13.112;2024-01-15T14:41:49;2.40;;;1.83;;
2724;SDS011;1370;52.596;13.112;2024-01-15T14:44:14;1.67;;;1.57;;
2724;SDS011;1370;52.596;13.112;2024-01-15T14:46:40;2.37;;;2.13;;
2724;SDS011;1370;52.596;13.112;2024-01-15T14:49:05;2.90;;;1.77;;
2724;SDS011;1370;52.596;13.112;2024-01-15T14:51:31;6.07;;;1.20;;
2724;SDS011;1370;52.596;13.112;2024-01-15T14:53:56;2.80;;;1.80;;